createdAt,value
2023-03-11T00:01:15.963Z,9.76
2023-03-11T00:04:28.026Z,9.76
2023-03-11T00:07:40.870Z,9.77
2023-03-11T00:10:55.688Z,9.79
2023-03-11T00:14:07.859Z,9.83
2023-03-11T00:17:19.864Z,9.87
2023-03-11T00:20:35.022Z,9.90
2023-03-11T00:23:46.957Z,9.90
2023-03-11T00:27:02.527Z,9.93
2023-03-11T00:30:20.311Z,9.97
2023-03-11T00:33:32.868Z,9.94
2023-03-11T00:36:45.373Z,9.95
2023-03-11T00:39:57.437Z,9.94
2023-03-11T00:43:09.992Z,9.91
2023-03-11T00:46:22.291Z,9.86
2023-03-11T00:49:34.508Z,9.83
2023-03-11T00:52:46.900Z,9.81
2023-03-11T00:55:59.123Z,9.78
2023-03-11T00:59:11.445Z,9.73
2023-03-11T01:02:23.766Z,9.72
2023-03-11T01:05:39.098Z,9.67
2023-03-11T01:08:51.435Z,9.62
2023-03-11T01:12:03.693Z,9.61
2023-03-11T01:15:21.416Z,9.67
2023-03-11T01:18:33.990Z,9.71
2023-03-11T01:21:47.156Z,9.77
2023-03-11T01:24:59.427Z,9.78
2023-03-11T01:28:12.828Z,9.80
2023-03-11T01:31:25.216Z,9.79
2023-03-11T01:34:37.733Z,9.78
2023-03-11T01:37:50.405Z,9.78
2023-03-11T01:41:02.814Z,9.78
2023-03-11T01:44:17.586Z,9.70
2023-03-11T01:47:45.712Z,9.70
2023-03-11T01:50:58.377Z,9.67
2023-03-11T01:54:14.896Z,9.65
2023-03-11T01:57:28.315Z,9.68
2023-03-11T02:00:42.003Z,9.76
2023-03-11T02:03:55.202Z,9.76
2023-03-11T02:07:08.574Z,9.82
2023-03-11T02:10:22.269Z,9.81
2023-03-11T02:13:35.424Z,9.76
2023-03-11T02:16:47.828Z,9.74
2023-03-11T02:20:19.147Z,9.69
2023-03-11T02:23:37.674Z,9.65
2023-03-11T02:27:00.477Z,9.59
2023-03-11T02:30:18.985Z,9.56
2023-03-11T02:33:34.538Z,9.51
2023-03-11T02:36:49.100Z,9.41
2023-03-11T02:40:17.624Z,9.36
2023-03-11T02:43:37.946Z,9.30
2023-03-11T02:46:51.008Z,9.23
2023-03-11T02:50:04.237Z,9.19
2023-03-11T02:53:17.224Z,9.15
2023-03-11T02:56:29.448Z,9.10
2023-03-11T02:59:44.568Z,9.09
2023-03-11T03:02:58.978Z,9.05
2023-03-11T03:06:13.058Z,9.03
2023-03-11T03:09:25.332Z,9.00
2023-03-11T03:12:37.947Z,8.93
2023-03-11T03:15:50.138Z,8.88
2023-03-11T03:19:02.502Z,8.81
2023-03-11T03:22:14.977Z,8.71
2023-03-11T03:25:27.785Z,8.63
2023-03-11T03:28:40.743Z,8.51
2023-03-11T03:31:53.485Z,8.48
2023-03-11T03:35:07.148Z,8.43
2023-03-11T03:38:24.118Z,8.37
2023-03-11T03:41:37.656Z,8.32
2023-03-11T03:44:50.674Z,8.32
2023-03-11T03:48:03.898Z,8.28
2023-03-11T03:51:19.790Z,8.27
2023-03-11T03:54:34.104Z,8.23
2023-03-11T03:57:47.385Z,8.22
2023-03-11T04:01:05.099Z,8.18
2023-03-11T04:04:18.044Z,8.20
2023-03-11T04:07:30.707Z,8.16
2023-03-11T04:10:43.175Z,8.17
2023-03-11T04:13:55.532Z,8.13
2023-03-11T04:17:07.734Z,8.10
2023-03-11T04:20:21.232Z,8.08
2023-03-11T04:23:34.600Z,8.03
2023-03-11T04:26:47.733Z,7.99
2023-03-11T04:30:01.337Z,8.00
2023-03-11T04:33:14.963Z,7.93
2023-03-11T04:36:27.483Z,7.93
2023-03-11T04:39:40.034Z,7.88
2023-03-11T04:42:53.922Z,7.88
2023-03-11T04:46:10.582Z,7.82
2023-03-11T04:49:23.594Z,7.83
2023-03-11T04:52:36.392Z,7.81
2023-03-11T04:55:48.910Z,7.78
2023-03-11T04:59:01.211Z,7.75
2023-03-11T05:02:14.138Z,7.72
2023-03-11T05:05:28.198Z,7.74
2023-03-11T05:08:40.700Z,7.54
2023-03-11T05:11:54.454Z,7.36
2023-03-11T05:15:07.281Z,7.20
2023-03-11T05:18:19.703Z,7.14
2023-03-11T05:21:33.041Z,7.08
2023-03-11T05:24:47.065Z,6.99
2023-03-11T05:27:59.686Z,6.86
2023-03-11T05:31:16.885Z,6.79
2023-03-11T05:34:29.855Z,6.75
2023-03-11T05:37:42.656Z,6.70
2023-03-11T05:40:55.273Z,6.49
2023-03-11T05:44:07.572Z,6.49
2023-03-11T05:47:20.056Z,6.30
2023-03-11T05:50:32.914Z,6.30
2023-03-11T05:53:48.684Z,6.22
2023-03-11T05:57:03.017Z,6.08
2023-03-11T06:00:20.610Z,6.08
2023-03-11T06:03:33.547Z,5.99
2023-03-11T06:06:46.585Z,5.89
2023-03-11T06:09:59.770Z,5.93
2023-03-11T06:13:11.972Z,5.87
2023-03-11T06:16:26.458Z,5.72
2023-03-11T06:19:39.407Z,5.50
2023-03-11T06:22:53.987Z,5.37
2023-03-11T06:26:11.088Z,5.25
2023-03-11T06:29:26.813Z,5.04
2023-03-11T06:32:39.471Z,5.00
2023-03-11T06:36:02.241Z,4.91
2023-03-11T06:39:18.648Z,4.75
2023-03-11T06:42:32.594Z,4.76
2023-03-11T06:45:45.062Z,4.78
2023-03-11T06:48:58.398Z,4.66
2023-03-11T06:52:11.750Z,4.58
2023-03-11T06:55:25.388Z,4.67
2023-03-11T06:58:39.932Z,4.77
2023-03-11T07:01:52.428Z,4.86
2023-03-11T07:05:05.262Z,4.89
2023-03-11T07:08:17.637Z,4.86
2023-03-11T07:11:32.249Z,4.71
2023-03-11T07:14:46.162Z,4.65
2023-03-11T07:17:58.523Z,4.60
2023-03-11T07:21:12.755Z,4.47
2023-03-11T07:24:25.169Z,4.47
2023-03-11T07:27:37.479Z,4.34
2023-03-11T07:30:49.744Z,4.11
2023-03-11T07:34:03.282Z,4.14
2023-03-11T07:37:15.561Z,4.20
2023-03-11T07:40:27.961Z,4.09
2023-03-11T07:43:40.477Z,4.00
2023-03-11T07:46:52.873Z,4.11
2023-03-11T07:50:05.068Z,4.07
2023-03-11T07:53:17.286Z,3.97
2023-03-11T07:56:31.249Z,4.02
2023-03-11T07:59:43.564Z,4.01
2023-03-11T08:02:55.940Z,3.96
2023-03-11T08:06:10.721Z,3.87
2023-03-11T08:09:23.044Z,3.86
2023-03-11T08:12:34.973Z,3.80
2023-03-11T08:15:47.086Z,3.82
2023-03-11T08:19:00.345Z,3.75
2023-03-11T08:22:13.071Z,3.73
2023-03-11T08:25:25.424Z,3.89
2023-03-11T08:28:37.591Z,3.87
2023-03-11T08:31:49.703Z,3.92
2023-03-11T08:35:01.799Z,3.79
2023-03-11T08:38:14.413Z,3.88
2023-03-11T08:41:27.125Z,3.85
2023-03-11T08:44:39.607Z,3.74
2023-03-11T08:47:51.808Z,3.77
2023-03-11T08:51:04.135Z,3.90
2023-03-11T08:54:16.372Z,3.84
2023-03-11T08:57:28.579Z,3.87
2023-03-11T09:00:41.019Z,3.82
2023-03-11T09:03:53.711Z,3.77
2023-03-11T09:07:05.811Z,3.90
2023-03-11T09:10:20.589Z,4.02
2023-03-11T09:13:33.204Z,4.01
2023-03-11T09:16:45.702Z,4.14
2023-03-11T09:19:58.073Z,3.99
2023-03-11T09:23:10.590Z,4.16
2023-03-11T09:26:23.466Z,4.43
2023-03-11T09:29:36.472Z,4.14
2023-03-11T09:32:48.709Z,3.94
2023-03-11T09:36:00.975Z,3.78
2023-03-11T09:39:13.576Z,3.84
2023-03-11T09:42:32.275Z,4.20
2023-03-11T09:45:49.325Z,4.83
2023-03-11T09:49:03.586Z,4.57
2023-03-11T09:52:19.954Z,4.27
2023-03-11T09:55:51.339Z,4.30
2023-03-11T09:59:07.257Z,4.15
2023-03-11T10:02:26.741Z,3.82
2023-03-11T10:05:39.405Z,3.75
2023-03-11T10:08:59.361Z,3.79
2023-03-11T10:12:21.432Z,3.82
2023-03-11T10:15:42.945Z,3.81
2023-03-11T10:19:04.398Z,3.79
2023-03-11T10:22:25.274Z,3.81
2023-03-11T10:25:45.227Z,3.59
2023-03-11T10:29:02.620Z,3.70
2023-03-11T10:32:20.576Z,3.55
2023-03-11T10:35:40.810Z,3.72
2023-03-11T10:38:56.318Z,3.64
2023-03-11T10:42:13.638Z,3.58
2023-03-11T10:45:27.566Z,3.46
2023-03-11T10:48:40.401Z,3.49
2023-03-11T10:51:57.319Z,3.45
2023-03-11T10:55:11.344Z,3.11
2023-03-11T10:58:27.225Z,3.07
2023-03-11T11:01:39.452Z,3.16
2023-03-11T11:04:51.903Z,2.95
2023-03-11T11:08:16.088Z,2.91
2023-03-11T11:11:31.996Z,2.80
2023-03-11T11:14:56.588Z,2.69
2023-03-11T11:18:16.381Z,2.65
2023-03-11T11:21:38.462Z,2.55
2023-03-11T11:24:55.573Z,2.37
2023-03-11T11:28:14.561Z,2.24
2023-03-11T11:31:32.318Z,2.23
2023-03-11T11:34:45.534Z,2.17
2023-03-11T11:38:02.571Z,2.17
2023-03-11T11:41:16.860Z,2.10
2023-03-11T11:44:33.566Z,2.10
2023-03-11T11:47:50.488Z,2.01
2023-03-11T11:51:06.557Z,1.97
2023-03-11T11:54:25.593Z,2.00
2023-03-11T11:57:38.341Z,2.01
2023-03-11T12:01:07.026Z,1.93
2023-03-11T12:04:54.865Z,1.98
2023-03-11T12:08:17.529Z,1.87
2023-03-11T12:11:36.686Z,1.86
2023-03-11T12:14:53.814Z,1.76
2023-03-11T12:18:11.345Z,1.85
2023-03-11T12:21:33.700Z,1.78
2023-03-11T12:25:01.422Z,1.82
2023-03-11T12:28:26.108Z,1.76
2023-03-11T12:31:42.982Z,1.85
2023-03-11T12:34:55.392Z,1.84
2023-03-11T12:38:25.412Z,1.88
2023-03-11T12:41:42.954Z,1.79
2023-03-11T12:44:57.556Z,1.83
2023-03-11T12:48:50.477Z,1.92
2023-03-11T12:52:26.492Z,1.91
2023-03-11T12:55:42.114Z,1.92
2023-03-11T12:59:18.912Z,1.89
2023-03-11T13:02:52.299Z,1.93
2023-03-11T13:06:17.972Z,1.92
2023-03-11T13:09:32.165Z,1.87
2023-03-11T13:12:50.807Z,1.82
2023-03-11T13:16:05.206Z,1.79
2023-03-11T13:19:56.273Z,1.75
2023-03-11T13:23:40.887Z,1.78
2023-03-11T13:26:56.767Z,1.66
2023-03-11T13:30:17.282Z,1.66
2023-03-11T13:33:55.768Z,1.64
2023-03-11T13:37:25.391Z,1.48
2023-03-11T13:40:42.823Z,1.36
2023-03-11T13:43:57.342Z,1.42
2023-03-11T13:47:16.288Z,1.43
2023-03-11T13:50:34.699Z,1.51
2023-03-11T13:53:51.971Z,1.53
2023-03-11T13:57:07.439Z,1.58
2023-03-11T14:00:28.666Z,1.63
2023-03-11T14:03:48.701Z,1.66
2023-03-11T14:07:01.524Z,1.71
2023-03-11T14:10:39.676Z,1.60
2023-03-11T14:13:55.337Z,1.55
2023-03-11T14:17:09.698Z,1.50
2023-03-11T14:20:25.360Z,1.50
2023-03-11T14:23:44.193Z,1.43
2023-03-11T14:26:57.905Z,1.40
2023-03-11T14:30:11.964Z,1.45
2023-03-11T14:33:28.569Z,1.52
2023-03-11T14:36:54.390Z,1.41
2023-03-11T14:40:07.971Z,1.57
2023-03-11T14:43:20.724Z,1.50
2023-03-11T14:46:35.835Z,1.47
2023-03-11T14:49:48.293Z,1.50
2023-03-11T14:53:04.942Z,1.49
2023-03-11T14:56:23.061Z,1.45
2023-03-11T14:59:38.168Z,1.46
2023-03-11T15:03:03.141Z,1.54
2023-03-11T15:06:19.367Z,1.55
2023-03-11T15:09:32.920Z,1.50
2023-03-11T15:12:50.033Z,1.45
2023-03-11T15:16:04.484Z,1.36
2023-03-11T15:19:38.676Z,1.28
2023-03-11T15:22:51.429Z,1.13
2023-03-11T15:26:04.322Z,1.10
2023-03-11T15:29:23.142Z,1.12
2023-03-11T15:32:48.949Z,1.13
2023-03-11T15:36:01.543Z,1.01
2023-03-11T15:39:29.033Z,0.95
2023-03-11T15:42:39.391Z,0.93
2023-03-11T15:45:53.621Z,0.96
2023-03-11T15:49:05.866Z,0.93
2023-03-11T15:52:19.371Z,0.91
2023-03-11T15:55:33.449Z,1.00
2023-03-11T15:58:46.066Z,1.01
2023-03-11T16:01:59.625Z,1.02
2023-03-11T16:05:21.690Z,1.04
2023-03-11T16:08:34.885Z,1.06
2023-03-11T16:11:48.495Z,1.05
2023-03-11T16:15:00.755Z,1.07
2023-03-11T16:18:14.755Z,1.07
2023-03-11T16:21:32.068Z,1.04
2023-03-11T16:24:44.552Z,1.03
2023-03-11T16:28:00.025Z,1.03
2023-03-11T16:31:13.685Z,0.99
2023-03-11T16:34:26.464Z,1.01
2023-03-11T16:37:39.056Z,1.03
2023-03-11T16:40:51.640Z,1.06
2023-03-11T16:44:03.764Z,1.09
2023-03-11T16:47:16.080Z,1.06
2023-03-11T16:50:29.062Z,1.04
2023-03-11T16:53:41.959Z,1.09
2023-03-11T16:56:55.053Z,1.09
2023-03-11T17:00:10.032Z,1.07
2023-03-11T17:03:27.574Z,1.07
2023-03-11T17:06:40.511Z,1.05
2023-03-11T17:09:52.744Z,1.06
2023-03-11T17:13:05.280Z,1.10
2023-03-11T17:16:19.280Z,1.09
2023-03-11T17:19:33.600Z,1.08
2023-03-11T17:22:47.698Z,1.03
2023-03-11T17:26:01.709Z,1.01
2023-03-11T17:29:15.284Z,1.03
2023-03-11T17:32:31.396Z,0.95
2023-03-11T17:35:44.882Z,0.95
2023-03-11T17:39:00.337Z,0.92
2023-03-11T17:42:14.086Z,0.96
2023-03-11T17:45:26.451Z,0.89
2023-03-11T17:48:38.714Z,0.94
2023-03-11T17:51:51.259Z,0.98
2023-03-11T17:55:03.858Z,0.97
2023-03-11T17:58:16.193Z,0.95
2023-03-11T18:01:31.812Z,0.87
2023-03-11T18:04:46.055Z,0.89
2023-03-11T18:07:59.490Z,0.88
2023-03-11T18:11:18.868Z,0.84
2023-03-11T18:14:32.760Z,0.86
2023-03-11T18:17:45.901Z,0.77
2023-03-11T18:20:58.571Z,0.62
2023-03-11T18:24:12.962Z,0.65
2023-03-11T18:27:25.316Z,0.57
2023-03-11T18:30:38.029Z,0.52
2023-03-11T18:33:53.669Z,0.45
2023-03-11T18:37:05.997Z,0.53
2023-03-11T18:40:21.434Z,0.54
2023-03-11T18:43:34.444Z,0.49
2023-03-11T18:46:47.089Z,0.59
2023-03-11T18:49:59.202Z,0.64
2023-03-11T18:53:12.076Z,0.66
2023-03-11T18:56:25.687Z,0.65
2023-03-11T18:59:38.311Z,0.63
2023-03-11T19:02:50.610Z,0.64
2023-03-11T19:06:03.705Z,0.67
2023-03-11T19:09:16.565Z,0.69
2023-03-11T19:12:30.871Z,0.70
2023-03-11T19:15:46.430Z,0.74
2023-03-11T19:18:59.167Z,0.79
2023-03-11T19:22:11.493Z,0.80
2023-03-11T19:25:27.536Z,0.84
2023-03-11T19:28:40.165Z,0.82
2023-03-11T19:31:52.562Z,0.79
2023-03-11T19:35:04.559Z,0.86
2023-03-11T19:38:16.655Z,0.75
2023-03-11T19:41:28.687Z,0.72
2023-03-11T19:44:40.891Z,0.70
2023-03-11T19:47:53.006Z,0.72
2023-03-11T19:51:05.847Z,0.81
2023-03-11T19:54:19.443Z,0.83
2023-03-11T19:57:31.639Z,0.81
2023-03-11T20:00:45.688Z,0.85
2023-03-11T20:03:59.499Z,0.84
2023-03-11T20:07:12.193Z,0.80
2023-03-11T20:10:25.183Z,0.78
2023-03-11T20:13:41.269Z,0.77
2023-03-11T20:16:54.011Z,0.74
2023-03-11T20:20:06.595Z,0.70
2023-03-11T20:23:19.438Z,0.69
2023-03-11T20:26:32.292Z,0.63
2023-03-11T20:29:44.969Z,0.57
2023-03-11T20:36:26.775Z,0.47
2023-03-11T20:39:39.193Z,0.43
2023-03-11T20:42:51.835Z,0.39
2023-03-11T20:46:05.764Z,0.37
2023-03-11T20:49:18.700Z,0.34
2023-03-11T20:52:33.359Z,0.29
2023-03-11T20:55:48.037Z,0.23
2023-03-11T20:59:02.972Z,0.17
2023-03-11T21:05:46.162Z,0.09
2023-03-11T21:09:02.414Z,0.06
2023-03-11T21:12:15.850Z,0.01
2023-03-11T21:15:28.748Z,-0.03
2023-03-11T21:18:54.381Z,-0.03
2023-03-11T21:22:19.660Z,-0.08
2023-03-11T21:25:42.888Z,-0.08
2023-03-11T21:28:55.345Z,-0.11
2023-03-11T21:32:19.590Z,-0.14
2023-03-11T21:39:14.674Z,-0.13
2023-03-11T21:53:30.956Z,-0.12
2023-03-11T22:18:45.612Z,0.03
2023-03-11T22:21:57.701Z,0.04
2023-03-11T22:25:15.067Z,0.05
2023-03-11T22:28:40.466Z,0.09
2023-03-11T22:32:00.151Z,0.09
2023-03-11T22:42:19.994Z,0.18
2023-03-11T22:45:32.319Z,0.18
2023-03-11T22:48:57.432Z,0.18
2023-03-11T22:52:23.131Z,0.21
2023-03-11T22:59:27.895Z,0.22
2023-03-11T23:06:23.131Z,0.29
2023-03-11T23:09:35.292Z,0.31
2023-03-11T23:16:31.445Z,0.31
2023-03-11T23:30:59.309Z,0.31
2023-03-11T23:37:55.293Z,0.30
2023-03-11T23:52:41.330Z,0.15
